sensor_id;sensor_type;location;lat;lon;timestamp;P1;durP1;ratioP1;P2;durP2;ratioP2
32637;SDS011;19045;52.268;10.506;2022-07-23T00:01:07;11.48;;;7.88;;
32637;SDS011;19045;52.268;10.506;2022-07-23T00:03:33;14.60;;;8.73;;
32637;SDS011;19045;52.268;10.506;2022-07-23T00:06:00;13.27;;;8.40;;
32637;SDS011;19045;52.268;10.506;2022-07-23T00:08:27;13.40;;;9.27;;
32637;SDS011;19045;52.268;10.506;2022-07-23T00:10:53;13.38;;;8.30;;
32637;SDS011;19045;52.268;10.506;2022-07-23T00:13:21;11.85;;;7.95;;
32637;SDS011;19045;52.268;10.506;2022-07-23T00:15:48;13.38;;;8.38;;
32637;SDS011;19045;52.268;10.506;2022-07-23T00:18:15;14.93;;;8.43;;
32637;SDS011;19045;52.268;10.506;2022-07-23T00:20:41;10.27;;;8.00;;
32637;SDS011;19045;52.268;10.506;2022-07-23T00:23:08;10.50;;;8.35;;
32637;SDS011;19045;52.268;10.506;2022-07-23T00:25:35;13.38;;;8.00;;
32637;SDS011;19045;52.268;10.506;2022-07-23T00:28:02;11.85;;;8.60;;
32637;SDS011;19045;52.268;10.506;2022-07-23T00:30:31;12.18;;;9.00;;
32637;SDS011;19045;52.268;10.506;2022-07-23T00:33:00;13.98;;;8.93;;
32637;SDS011;19045;52.268;10.506;2022-07-23T00:35:29;15.60;;;9.10;;
32637;SDS011;19045;52.268;10.506;2022-07-23T00:37:57;12.07;;;9.70;;
32637;SDS011;19045;52.268;10.506;2022-07-23T00:40:25;14.88;;;10.10;;
32637;SDS011;19045;52.268;10.506;2022-07-23T00:42:53;13.45;;;9.85;;
32637;SDS011;19045;52.268;10.506;2022-07-23T00:45:20;14.73;;;10.18;;
32637;SDS011;19045;52.268;10.506;2022-07-23T00:47:48;16.30;;;10.02;;
32637;SDS011;19045;52.268;10.506;2022-07-23T00:50:14;16.17;;;9.88;;
32637;SDS011;19045;52.268;10.506;2022-07-23T00:52:41;13.10;;;10.02;;
32637;SDS011;19045;52.268;10.506;2022-07-23T00:55:08;15.07;;;9.85;;
32637;SDS011;19045;52.268;10.506;2022-07-23T00:57:36;17.00;;;10.02;;
32637;SDS011;19045;52.268;10.506;2022-07-23T01:00:04;11.40;;;9.38;;
32637;SDS011;19045;52.268;10.506;2022-07-23T01:02:32;18.30;;;9.52;;
32637;SDS011;19045;52.268;10.506;2022-07-23T01:05:00;14.07;;;9.15;;
32637;SDS011;19045;52.268;10.506;2022-07-23T01:07:27;16.60;;;8.93;;
32637;SDS011;19045;52.268;10.506;2022-07-23T01:09:55;14.43;;;9.15;;
32637;SDS011;19045;52.268;10.506;2022-07-23T01:12:22;15.95;;;8.60;;
32637;SDS011;19045;52.268;10.506;2022-07-23T01:14:53;12.93;;;8.70;;
32637;SDS011;19045;52.268;10.506;2022-07-23T01:17:20;13.05;;;8.60;;
32637;SDS011;19045;52.268;10.506;2022-07-23T01:19:47;14.52;;;7.97;;
32637;SDS011;19045;52.268;10.506;2022-07-23T01:22:15;13.00;;;8.88;;
32637;SDS011;19045;52.268;10.506;2022-07-23T01:24:46;13.40;;;8.27;;
32637;SDS011;19045;52.268;10.506;2022-07-23T01:27:13;12.18;;;8.07;;
32637;SDS011;19045;52.268;10.506;2022-07-23T01:29:40;10.68;;;8.10;;
32637;SDS011;19045;52.268;10.506;2022-07-23T01:32:06;11.10;;;8.18;;
32637;SDS011;19045;52.268;10.506;2022-07-23T01:34:33;14.98;;;7.32;;
32637;SDS011;19045;52.268;10.506;2022-07-23T01:37:00;13.27;;;8.07;;
32637;SDS011;19045;52.268;10.506;2022-07-23T01:39:26;13.40;;;8.60;;
32637;SDS011;19045;52.268;10.506;2022-07-23T01:41:54;14.68;;;8.18;;
32637;SDS011;19045;52.268;10.506;2022-07-23T01:44:21;13.25;;;8.85;;
32637;SDS011;19045;52.268;10.506;2022-07-23T01:46:47;18.08;;;8.65;;
32637;SDS011;19045;52.268;10.506;2022-07-23T01:49:14;16.08;;;9.23;;
32637;SDS011;19045;52.268;10.506;2022-07-23T01:51:41;13.13;;;8.85;;
32637;SDS011;19045;52.268;10.506;2022-07-23T01:54:24;15.88;;;8.43;;
32637;SDS011;19045;52.268;10.506;2022-07-23T01:56:51;13.15;;;8.13;;
32637;SDS011;19045;52.268;10.506;2022-07-23T01:59:19;12.77;;;7.75;;
32637;SDS011;19045;52.268;10.506;2022-07-23T02:01:46;14.40;;;8.93;;
32637;SDS011;19045;52.268;10.506;2022-07-23T02:04:12;15.35;;;9.27;;
32637;SDS011;19045;52.268;10.506;2022-07-23T02:06:39;15.55;;;8.23;;
32637;SDS011;19045;52.268;10.506;2022-07-23T02:09:06;12.65;;;8.45;;
32637;SDS011;19045;52.268;10.506;2022-07-23T02:11:33;13.00;;;7.95;;
32637;SDS011;19045;52.268;10.506;2022-07-23T02:13:59;11.90;;;8.13;;
32637;SDS011;19045;52.268;10.506;2022-07-23T02:16:28;13.23;;;8.88;;
32637;SDS011;19045;52.268;10.506;2022-07-23T02:18:54;11.35;;;7.35;;
32637;SDS011;19045;52.268;10.506;2022-07-23T02:21:21;10.00;;;7.78;;
32637;SDS011;19045;52.268;10.506;2022-07-23T02:23:48;12.63;;;8.77;;
32637;SDS011;19045;52.268;10.506;2022-07-23T02:26:15;15.00;;;8.55;;
32637;SDS011;19045;52.268;10.506;2022-07-23T02:28:42;12.57;;;7.82;;
32637;SDS011;19045;52.268;10.506;2022-07-23T02:31:09;14.95;;;8.55;;
32637;SDS011;19045;52.268;10.506;2022-07-23T02:33:37;15.10;;;9.30;;
32637;SDS011;19045;52.268;10.506;2022-07-23T02:36:04;13.95;;;8.35;;
32637;SDS011;19045;52.268;10.506;2022-07-23T02:38:31;13.35;;;8.82;;
32637;SDS011;19045;52.268;10.506;2022-07-23T02:40:57;9.88;;;7.68;;
32637;SDS011;19045;52.268;10.506;2022-07-23T02:43:24;9.30;;;7.60;;
32637;SDS011;19045;52.268;10.506;2022-07-23T02:45:51;14.38;;;9.00;;
32637;SDS011;19045;52.268;10.506;2022-07-23T02:48:17;16.58;;;8.80;;
32637;SDS011;19045;52.268;10.506;2022-07-23T02:50:46;17.38;;;8.95;;
32637;SDS011;19045;52.268;10.506;2022-07-23T02:53:12;13.48;;;7.72;;
32637;SDS011;19045;52.268;10.506;2022-07-23T02:55:39;19.17;;;8.48;;
32637;SDS011;19045;52.268;10.506;2022-07-23T02:58:06;13.70;;;8.50;;
32637;SDS011;19045;52.268;10.506;2022-07-23T03:00:32;17.65;;;9.50;;
32637;SDS011;19045;52.268;10.506;2022-07-23T03:02:59;15.82;;;10.00;;
32637;SDS011;19045;52.268;10.506;2022-07-23T03:05:26;15.05;;;9.55;;
32637;SDS011;19045;52.268;10.506;2022-07-23T03:07:54;21.40;;;10.38;;
32637;SDS011;19045;52.268;10.506;2022-07-23T03:10:20;19.15;;;10.57;;
32637;SDS011;19045;52.268;10.506;2022-07-23T03:12:47;13.82;;;10.13;;
32637;SDS011;19045;52.268;10.506;2022-07-23T03:15:13;15.32;;;10.75;;
32637;SDS011;19045;52.268;10.506;2022-07-23T03:17:40;16.58;;;10.38;;
32637;SDS011;19045;52.268;10.506;2022-07-23T03:20:07;20.17;;;11.45;;
32637;SDS011;19045;52.268;10.506;2022-07-23T03:22:35;15.32;;;10.90;;
32637;SDS011;19045;52.268;10.506;2022-07-23T03:25:06;15.05;;;10.07;;
32637;SDS011;19045;52.268;10.506;2022-07-23T03:27:34;17.23;;;10.95;;
32637;SDS011;19045;52.268;10.506;2022-07-23T03:30:01;16.15;;;11.57;;
32637;SDS011;19045;52.268;10.506;2022-07-23T03:32:28;19.85;;;11.85;;
32637;SDS011;19045;52.268;10.506;2022-07-23T03:34:54;13.85;;;11.15;;
32637;SDS011;19045;52.268;10.506;2022-07-23T03:37:21;17.23;;;11.57;;
32637;SDS011;19045;52.268;10.506;2022-07-23T03:39:48;17.90;;;11.77;;
32637;SDS011;19045;52.268;10.506;2022-07-23T03:42:16;15.30;;;11.32;;
32637;SDS011;19045;52.268;10.506;2022-07-23T03:44:43;15.73;;;10.48;;
32637;SDS011;19045;52.268;10.506;2022-07-23T03:47:09;22.88;;;12.43;;
32637;SDS011;19045;52.268;10.506;2022-07-23T03:49:36;18.42;;;10.98;;
32637;SDS011;19045;52.268;10.506;2022-07-23T03:52:03;18.23;;;10.50;;
32637;SDS011;19045;52.268;10.506;2022-07-23T03:54:30;19.80;;;12.43;;
32637;SDS011;19045;52.268;10.506;2022-07-23T03:56:57;21.35;;;12.38;;
32637;SDS011;19045;52.268;10.506;2022-07-23T03:59:25;18.38;;;10.38;;
32637;SDS011;19045;52.268;10.506;2022-07-23T04:01:52;15.52;;;10.60;;
32637;SDS011;19045;52.268;10.506;2022-07-23T04:04:18;18.00;;;10.77;;
32637;SDS011;19045;52.268;10.506;2022-07-23T04:06:45;15.82;;;10.38;;
32637;SDS011;19045;52.268;10.506;2022-07-23T04:09:12;18.35;;;10.05;;
32637;SDS011;19045;52.268;10.506;2022-07-23T04:11:38;19.90;;;11.02;;
32637;SDS011;19045;52.268;10.506;2022-07-23T04:14:05;16.85;;;10.57;;
32637;SDS011;19045;52.268;10.506;2022-07-23T04:16:34;16.55;;;10.18;;
32637;SDS011;19045;52.268;10.506;2022-07-23T04:19:01;16.63;;;9.93;;
32637;SDS011;19045;52.268;10.506;2022-07-23T04:21:29;21.13;;;10.88;;
32637;SDS011;19045;52.268;10.506;2022-07-23T04:23:56;17.95;;;9.68;;
32637;SDS011;19045;52.268;10.506;2022-07-23T04:26:23;18.20;;;10.20;;
32637;SDS011;19045;52.268;10.506;2022-07-23T04:28:49;17.65;;;10.73;;
32637;SDS011;19045;52.268;10.506;2022-07-23T04:31:16;18.08;;;10.07;;
32637;SDS011;19045;52.268;10.506;2022-07-23T04:33:44;18.27;;;10.43;;
32637;SDS011;19045;52.268;10.506;2022-07-23T04:36:10;21.27;;;10.13;;
32637;SDS011;19045;52.268;10.506;2022-07-23T04:38:37;15.68;;;10.05;;
32637;SDS011;19045;52.268;10.506;2022-07-23T04:41:04;16.88;;;9.88;;
32637;SDS011;19045;52.268;10.506;2022-07-23T04:43:31;15.93;;;9.32;;
32637;SDS011;19045;52.268;10.506;2022-07-23T04:45:57;17.40;;;9.77;;
32637;SDS011;19045;52.268;10.506;2022-07-23T04:48:24;15.07;;;9.88;;
32637;SDS011;19045;52.268;10.506;2022-07-23T04:50:52;13.60;;;9.55;;
32637;SDS011;19045;52.268;10.506;2022-07-23T04:53:19;17.05;;;10.45;;
32637;SDS011;19045;52.268;10.506;2022-07-23T04:55:46;17.92;;;9.57;;
32637;SDS011;19045;52.268;10.506;2022-07-23T04:58:12;14.68;;;10.02;;
32637;SDS011;19045;52.268;10.506;2022-07-23T05:00:39;18.33;;;9.82;;
32637;SDS011;19045;52.268;10.506;2022-07-23T05:03:06;13.32;;;10.15;;
32637;SDS011;19045;52.268;10.506;2022-07-23T05:05:32;16.30;;;9.75;;
32637;SDS011;19045;52.268;10.506;2022-07-23T05:08:00;13.77;;;9.32;;
32637;SDS011;19045;52.268;10.506;2022-07-23T05:10:27;12.90;;;8.73;;
32637;SDS011;19045;52.268;10.506;2022-07-23T05:12:54;14.43;;;9.82;;
32637;SDS011;19045;52.268;10.506;2022-07-23T05:15:21;15.18;;;9.82;;
32637;SDS011;19045;52.268;10.506;2022-07-23T05:17:47;19.75;;;10.57;;
32637;SDS011;19045;52.268;10.506;2022-07-23T05:20:14;22.08;;;11.23;;
32637;SDS011;19045;52.268;10.506;2022-07-23T05:22:41;15.15;;;9.50;;
32637;SDS011;19045;52.268;10.506;2022-07-23T05:25:09;17.20;;;10.90;;
32637;SDS011;19045;52.268;10.506;2022-07-23T05:27:35;12.70;;;9.57;;
32637;SDS011;19045;52.268;10.506;2022-07-23T05:30:02;16.45;;;9.85;;
32637;SDS011;19045;52.268;10.506;2022-07-23T05:32:30;19.42;;;11.23;;
32637;SDS011;19045;52.268;10.506;2022-07-23T05:34:57;18.27;;;11.23;;
32637;SDS011;19045;52.268;10.506;2022-07-23T05:37:24;17.40;;;10.55;;
32637;SDS011;19045;52.268;10.506;2022-07-23T05:39:51;15.27;;;11.30;;
32637;SDS011;19045;52.268;10.506;2022-07-23T05:42:19;14.48;;;10.65;;
32637;SDS011;19045;52.268;10.506;2022-07-23T05:44:46;14.52;;;10.93;;
32637;SDS011;19045;52.268;10.506;2022-07-23T05:47:13;17.40;;;11.77;;
32637;SDS011;19045;52.268;10.506;2022-07-23T05:49:39;18.30;;;11.77;;
32637;SDS011;19045;52.268;10.506;2022-07-23T05:52:06;18.38;;;11.63;;
32637;SDS011;19045;52.268;10.506;2022-07-23T05:54:34;18.83;;;10.95;;
32637;SDS011;19045;52.268;10.506;2022-07-23T05:57:01;16.45;;;10.95;;
32637;SDS011;19045;52.268;10.506;2022-07-23T05:59:30;16.10;;;10.15;;
32637;SDS011;19045;52.268;10.506;2022-07-23T06:01:56;14.93;;;10.77;;
32637;SDS011;19045;52.268;10.506;2022-07-23T06:04:23;20.73;;;11.15;;
32637;SDS011;19045;52.268;10.506;2022-07-23T06:06:50;15.93;;;11.13;;
32637;SDS011;19045;52.268;10.506;2022-07-23T06:09:17;16.20;;;10.40;;
32637;SDS011;19045;52.268;10.506;2022-07-23T06:11:44;16.67;;;9.25;;
32637;SDS011;19045;52.268;10.506;2022-07-23T06:14:11;21.05;;;9.65;;
32637;SDS011;19045;52.268;10.506;2022-07-23T06:16:39;14.35;;;8.98;;
32637;SDS011;19045;52.268;10.506;2022-07-23T06:19:05;11.10;;;7.93;;
32637;SDS011;19045;52.268;10.506;2022-07-23T06:21:32;11.00;;;8.30;;
32637;SDS011;19045;52.268;10.506;2022-07-23T06:23:58;14.07;;;9.07;;
32637;SDS011;19045;52.268;10.506;2022-07-23T06:26:25;13.93;;;7.75;;
32637;SDS011;19045;52.268;10.506;2022-07-23T06:28:52;12.93;;;8.07;;
32637;SDS011;19045;52.268;10.506;2022-07-23T06:31:18;12.15;;;6.57;;
32637;SDS011;19045;52.268;10.506;2022-07-23T06:33:47;12.40;;;7.25;;
32637;SDS011;19045;52.268;10.506;2022-07-23T06:36:13;12.07;;;7.22;;
32637;SDS011;19045;52.268;10.506;2022-07-23T06:38:40;10.10;;;7.30;;
32637;SDS011;19045;52.268;10.506;2022-07-23T06:41:07;12.80;;;6.13;;
32637;SDS011;19045;52.268;10.506;2022-07-23T06:43:33;10.95;;;6.80;;
32637;SDS011;19045;52.268;10.506;2022-07-23T06:46:00;16.65;;;7.05;;
32637;SDS011;19045;52.268;10.506;2022-07-23T06:48:27;10.50;;;6.28;;
32637;SDS011;19045;52.268;10.506;2022-07-23T06:50:55;11.85;;;6.82;;
32637;SDS011;19045;52.268;10.506;2022-07-23T06:53:22;11.43;;;6.78;;
32637;SDS011;19045;52.268;10.506;2022-07-23T06:55:48;12.57;;;7.55;;
32637;SDS011;19045;52.268;10.506;2022-07-23T06:58:15;13.80;;;6.47;;
32637;SDS011;19045;52.268;10.506;2022-07-23T07:00:43;9.32;;;6.50;;
32637;SDS011;19045;52.268;10.506;2022-07-23T07:03:10;10.00;;;6.00;;
32637;SDS011;19045;52.268;10.506;2022-07-23T07:05:36;10.75;;;6.38;;
32637;SDS011;19045;52.268;10.506;2022-07-23T07:08:06;10.52;;;6.57;;
32637;SDS011;19045;52.268;10.506;2022-07-23T07:10:32;10.60;;;5.85;;
32637;SDS011;19045;52.268;10.506;2022-07-23T07:12:59;10.40;;;5.22;;
32637;SDS011;19045;52.268;10.506;2022-07-23T07:15:26;8.90;;;4.90;;
32637;SDS011;19045;52.268;10.506;2022-07-23T07:17:52;11.05;;;4.88;;
32637;SDS011;19045;52.268;10.506;2022-07-23T07:20:19;8.52;;;4.30;;
32637;SDS011;19045;52.268;10.506;2022-07-23T07:22:46;10.02;;;4.70;;
32637;SDS011;19045;52.268;10.506;2022-07-23T07:25:14;10.82;;;4.30;;
32637;SDS011;19045;52.268;10.506;2022-07-23T07:27:41;9.55;;;4.63;;
32637;SDS011;19045;52.268;10.506;2022-07-23T07:30:09;9.38;;;4.72;;
32637;SDS011;19045;52.268;10.506;2022-07-23T07:32:37;10.70;;;4.88;;
32637;SDS011;19045;52.268;10.506;2022-07-23T07:35:04;11.90;;;4.40;;
32637;SDS011;19045;52.268;10.506;2022-07-23T07:37:31;10.15;;;4.63;;
32637;SDS011;19045;52.268;10.506;2022-07-23T07:39:58;9.18;;;4.82;;
32637;SDS011;19045;52.268;10.506;2022-07-23T07:42:26;9.02;;;4.15;;
32637;SDS011;19045;52.268;10.506;2022-07-23T07:44:53;8.07;;;3.80;;
32637;SDS011;19045;52.268;10.506;2022-07-23T07:47:20;8.95;;;4.28;;
32637;SDS011;19045;52.268;10.506;2022-07-23T07:49:46;7.25;;;3.65;;
32637;SDS011;19045;52.268;10.506;2022-07-23T07:52:13;10.27;;;4.10;;
32637;SDS011;19045;52.268;10.506;2022-07-23T07:54:39;7.00;;;3.45;;
32637;SDS011;19045;52.268;10.506;2022-07-23T07:57:07;8.50;;;3.50;;
32637;SDS011;19045;52.268;10.506;2022-07-23T07:59:35;7.72;;;3.50;;
32637;SDS011;19045;52.268;10.506;2022-07-23T08:02:02;3.75;;;2.08;;
32637;SDS011;19045;52.268;10.506;2022-07-23T08:04:29;6.47;;;2.85;;
32637;SDS011;19045;52.268;10.506;2022-07-23T08:06:55;7.78;;;2.63;;
32637;SDS011;19045;52.268;10.506;2022-07-23T08:09:22;6.30;;;2.50;;
32637;SDS011;19045;52.268;10.506;2022-07-23T08:11:49;4.78;;;2.10;;
32637;SDS011;19045;52.268;10.506;2022-07-23T08:14:16;5.70;;;2.40;;
32637;SDS011;19045;52.268;10.506;2022-07-23T08:16:44;6.68;;;2.22;;
32637;SDS011;19045;52.268;10.506;2022-07-23T08:19:11;4.30;;;2.00;;
32637;SDS011;19045;52.268;10.506;2022-07-23T08:21:38;3.60;;;2.00;;
32637;SDS011;19045;52.268;10.506;2022-07-23T08:24:05;4.50;;;1.88;;
32637;SDS011;19045;52.268;10.506;2022-07-23T08:26:31;5.35;;;2.00;;
32637;SDS011;19045;52.268;10.506;2022-07-23T08:28:58;3.97;;;2.10;;
32637;SDS011;19045;52.268;10.506;2022-07-23T08:31:25;6.82;;;2.20;;
32637;SDS011;19045;52.268;10.506;2022-07-23T08:33:53;7.70;;;2.30;;
32637;SDS011;19045;52.268;10.506;2022-07-23T08:36:20;6.70;;;2.20;;
32637;SDS011;19045;52.268;10.506;2022-07-23T08:38:46;4.55;;;1.75;;
32637;SDS011;19045;52.268;10.506;2022-07-23T08:41:13;6.68;;;2.33;;
32637;SDS011;19045;52.268;10.506;2022-07-23T08:43:41;5.20;;;2.10;;
32637;SDS011;19045;52.268;10.506;2022-07-23T08:46:08;4.28;;;2.10;;
32637;SDS011;19045;52.268;10.506;2022-07-23T08:48:35;4.40;;;2.05;;
32637;SDS011;19045;52.268;10.506;2022-07-23T08:51:05;5.10;;;2.15;;
32637;SDS011;19045;52.268;10.506;2022-07-23T08:53:33;4.93;;;2.03;;
32637;SDS011;19045;52.268;10.506;2022-07-23T08:56:03;5.57;;;2.15;;
32637;SDS011;19045;52.268;10.506;2022-07-23T08:58:41;8.68;;;2.13;;
32637;SDS011;19045;52.268;10.506;2022-07-23T09:01:08;4.50;;;1.88;;
32637;SDS011;19045;52.268;10.506;2022-07-23T09:03:37;5.57;;;1.90;;
32637;SDS011;19045;52.268;10.506;2022-07-23T09:06:06;6.85;;;1.63;;
32637;SDS011;19045;52.268;10.506;2022-07-23T09:08:36;3.78;;;1.58;;
32637;SDS011;19045;52.268;10.506;2022-07-23T09:11:08;5.55;;;2.00;;
32637;SDS011;19045;52.268;10.506;2022-07-23T09:13:41;5.15;;;1.67;;
32637;SDS011;19045;52.268;10.506;2022-07-23T09:16:12;4.93;;;2.25;;
32637;SDS011;19045;52.268;10.506;2022-07-23T09:18:41;6.97;;;1.50;;
32637;SDS011;19045;52.268;10.506;2022-07-23T09:21:21;7.75;;;1.77;;
32637;SDS011;19045;52.268;10.506;2022-07-23T09:23:51;3.05;;;1.40;;
32637;SDS011;19045;52.268;10.506;2022-07-23T09:26:22;7.50;;;1.77;;
32637;SDS011;19045;52.268;10.506;2022-07-23T09:28:56;3.60;;;1.88;;
32637;SDS011;19045;52.268;10.506;2022-07-23T09:31:25;5.90;;;2.15;;
32637;SDS011;19045;52.268;10.506;2022-07-23T09:34:05;6.95;;;2.25;;
32637;SDS011;19045;52.268;10.506;2022-07-23T09:36:35;6.40;;;1.98;;
32637;SDS011;19045;52.268;10.506;2022-07-23T09:39:02;4.72;;;1.55;;
32637;SDS011;19045;52.268;10.506;2022-07-23T09:41:34;3.33;;;1.70;;
32637;SDS011;19045;52.268;10.506;2022-07-23T09:44:07;4.00;;;2.28;;
32637;SDS011;19045;52.268;10.506;2022-07-23T09:46:35;4.55;;;1.50;;
32637;SDS011;19045;52.268;10.506;2022-07-23T09:49:12;3.75;;;1.95;;
32637;SDS011;19045;52.268;10.506;2022-07-23T09:51:46;5.28;;;1.70;;
32637;SDS011;19045;52.268;10.506;2022-07-23T09:57:01;4.10;;;2.00;;
32637;SDS011;19045;52.268;10.506;2022-07-23T09:59:31;5.43;;;1.95;;
32637;SDS011;19045;52.268;10.506;2022-07-23T10:01:59;3.15;;;1.60;;
32637;SDS011;19045;52.268;10.506;2022-07-23T10:04:27;3.90;;;2.00;;
32637;SDS011;19045;52.268;10.506;2022-07-23T10:06:57;3.72;;;2.20;;
32637;SDS011;19045;52.268;10.506;2022-07-23T10:09:26;3.97;;;1.80;;
32637;SDS011;19045;52.268;10.506;2022-07-23T10:11:55;5.88;;;2.00;;
32637;SDS011;19045;52.268;10.506;2022-07-23T10:14:39;3.38;;;1.90;;
32637;SDS011;19045;52.268;10.506;2022-07-23T10:17:06;2.40;;;1.60;;
32637;SDS011;19045;52.268;10.506;2022-07-23T10:19:36;3.42;;;2.20;;
32637;SDS011;19045;52.268;10.506;2022-07-23T10:22:07;3.10;;;1.67;;
32637;SDS011;19045;52.268;10.506;2022-07-23T10:27:36;3.20;;;1.33;;
32637;SDS011;19045;52.268;10.506;2022-07-23T10:30:13;3.70;;;1.35;;
32637;SDS011;19045;52.268;10.506;2022-07-23T10:32:49;3.28;;;1.50;;
32637;SDS011;19045;52.268;10.506;2022-07-23T10:35:29;5.53;;;1.60;;
32637;SDS011;19045;52.268;10.506;2022-07-23T10:38:11;1.42;;;1.17;;
32637;SDS011;19045;52.268;10.506;2022-07-23T10:40:52;2.55;;;1.55;;
32637;SDS011;19045;52.268;10.506;2022-07-23T10:43:21;3.97;;;1.13;;
32637;SDS011;19045;52.268;10.506;2022-07-23T10:45:49;3.70;;;1.25;;
32637;SDS011;19045;52.268;10.506;2022-07-23T10:48:16;3.92;;;1.50;;
32637;SDS011;19045;52.268;10.506;2022-07-23T10:59:16;3.47;;;1.67;;
32637;SDS011;19045;52.268;10.506;2022-07-23T11:01:43;2.78;;;1.08;;
32637;SDS011;19045;52.268;10.506;2022-07-23T11:04:10;5.60;;;1.33;;
32637;SDS011;19045;52.268;10.506;2022-07-23T11:09:39;2.75;;;1.02;;
32637;SDS011;19045;52.268;10.506;2022-07-23T11:14:58;3.67;;;0.90;;
32637;SDS011;19045;52.268;10.506;2022-07-23T11:17:26;3.30;;;1.13;;
32637;SDS011;19045;52.268;10.506;2022-07-23T11:20:16;3.47;;;1.00;;
32637;SDS011;19045;52.268;10.506;2022-07-23T11:22:48;4.50;;;1.30;;
32637;SDS011;19045;52.268;10.506;2022-07-23T11:25:31;5.10;;;1.10;;
32637;SDS011;19045;52.268;10.506;2022-07-23T11:30:51;1.77;;;1.08;;
32637;SDS011;19045;52.268;10.506;2022-07-23T11:33:19;3.78;;;1.30;;
32637;SDS011;19045;52.268;10.506;2022-07-23T11:35:47;6.85;;;1.88;;
32637;SDS011;19045;52.268;10.506;2022-07-23T11:38:17;3.83;;;0.90;;
32637;SDS011;19045;52.268;10.506;2022-07-23T11:40:49;0.88;;;0.73;;
32637;SDS011;19045;52.268;10.506;2022-07-23T11:43:18;2.38;;;0.98;;
32637;SDS011;19045;52.268;10.506;2022-07-23T11:45:45;2.03;;;0.80;;
32637;SDS011;19045;52.268;10.506;2022-07-23T11:48:16;1.77;;;1.00;;
32637;SDS011;19045;52.268;10.506;2022-07-23T11:50:45;2.90;;;1.35;;
32637;SDS011;19045;52.268;10.506;2022-07-23T11:53:12;3.05;;;0.90;;
32637;SDS011;19045;52.268;10.506;2022-07-23T11:55:39;1.80;;;0.77;;
32637;SDS011;19045;52.268;10.506;2022-07-23T11:58:07;6.38;;;1.30;;
32637;SDS011;19045;52.268;10.506;2022-07-23T12:00:34;6.00;;;1.20;;
32637;SDS011;19045;52.268;10.506;2022-07-23T12:03:02;3.60;;;1.00;;
32637;SDS011;19045;52.268;10.506;2022-07-23T12:05:32;4.00;;;1.30;;
32637;SDS011;19045;52.268;10.506;2022-07-23T12:08:01;5.70;;;1.17;;
32637;SDS011;19045;52.268;10.506;2022-07-23T12:10:30;3.63;;;1.00;;
32637;SDS011;19045;52.268;10.506;2022-07-23T12:13:01;3.33;;;1.33;;
32637;SDS011;19045;52.268;10.506;2022-07-23T12:15:32;2.17;;;0.90;;
32637;SDS011;19045;52.268;10.506;2022-07-23T12:18:02;1.45;;;0.60;;
32637;SDS011;19045;52.268;10.506;2022-07-23T12:20:31;2.38;;;1.00;;
32637;SDS011;19045;52.268;10.506;2022-07-23T12:22:59;9.23;;;0.80;;
32637;SDS011;19045;52.268;10.506;2022-07-23T12:25:28;3.45;;;0.98;;
32637;SDS011;19045;52.268;10.506;2022-07-23T12:28:00;1.45;;;0.73;;
32637;SDS011;19045;52.268;10.506;2022-07-23T12:30:30;3.72;;;0.63;;
32637;SDS011;19045;52.268;10.506;2022-07-23T12:33:02;5.05;;;0.80;;
32637;SDS011;19045;52.268;10.506;2022-07-23T12:35:30;2.17;;;0.90;;
32637;SDS011;19045;52.268;10.506;2022-07-23T12:38:00;0.70;;;0.65;;
32637;SDS011;19045;52.268;10.506;2022-07-23T12:40:28;3.70;;;0.80;;
32637;SDS011;19045;52.268;10.506;2022-07-23T12:42:57;4.13;;;1.25;;
32637;SDS011;19045;52.268;10.506;2022-07-23T12:45:25;3.22;;;0.68;;
32637;SDS011;19045;52.268;10.506;2022-07-23T12:48:15;3.65;;;1.10;;
32637;SDS011;19045;52.268;10.506;2022-07-23T12:50:53;6.72;;;1.15;;
32637;SDS011;19045;52.268;10.506;2022-07-23T12:53:23;4.90;;;1.17;;
32637;SDS011;19045;52.268;10.506;2022-07-23T12:55:56;1.20;;;0.80;;
32637;SDS011;19045;52.268;10.506;2022-07-23T12:58:25;1.85;;;1.10;;
32637;SDS011;19045;52.268;10.506;2022-07-23T13:00:53;3.53;;;0.80;;
32637;SDS011;19045;52.268;10.506;2022-07-23T13:03:23;1.88;;;1.00;;
32637;SDS011;19045;52.268;10.506;2022-07-23T13:05:52;4.05;;;1.10;;
32637;SDS011;19045;52.268;10.506;2022-07-23T13:08:19;1.58;;;1.00;;
32637;SDS011;19045;52.268;10.506;2022-07-23T13:10:46;3.33;;;1.00;;
32637;SDS011;19045;52.268;10.506;2022-07-23T13:13:14;3.63;;;1.02;;
32637;SDS011;19045;52.268;10.506;2022-07-23T13:15:41;2.83;;;0.93;;
32637;SDS011;19045;52.268;10.506;2022-07-23T13:18:08;8.15;;;0.80;;
32637;SDS011;19045;52.268;10.506;2022-07-23T13:20:36;1.98;;;0.77;;
32637;SDS011;19045;52.268;10.506;2022-07-23T13:23:04;5.22;;;1.05;;
32637;SDS011;19045;52.268;10.506;2022-07-23T13:25:31;2.47;;;0.95;;
32637;SDS011;19045;52.268;10.506;2022-07-23T13:27:58;4.43;;;1.00;;
32637;SDS011;19045;52.268;10.506;2022-07-23T13:30:25;4.90;;;1.17;;
32637;SDS011;19045;52.268;10.506;2022-07-23T13:32:51;2.85;;;0.80;;
32637;SDS011;19045;52.268;10.506;2022-07-23T13:35:21;1.88;;;0.75;;
32637;SDS011;19045;52.268;10.506;2022-07-23T13:37:49;1.35;;;0.80;;
32637;SDS011;19045;52.268;10.506;2022-07-23T13:40:16;3.63;;;0.77;;
32637;SDS011;19045;52.268;10.506;2022-07-23T13:42:43;2.92;;;0.95;;
32637;SDS011;19045;52.268;10.506;2022-07-23T13:45:10;0.90;;;0.65;;
32637;SDS011;19045;52.268;10.506;2022-07-23T13:47:37;1.75;;;0.80;;
32637;SDS011;19045;52.268;10.506;2022-07-23T13:50:04;4.63;;;1.00;;
32637;SDS011;19045;52.268;10.506;2022-07-23T13:52:31;3.05;;;0.80;;
32637;SDS011;19045;52.268;10.506;2022-07-23T13:55:00;1.65;;;0.68;;
32637;SDS011;19045;52.268;10.506;2022-07-23T13:57:32;1.38;;;0.70;;
32637;SDS011;19045;52.268;10.506;2022-07-23T13:59:59;2.80;;;0.75;;
32637;SDS011;19045;52.268;10.506;2022-07-23T14:02:28;3.20;;;0.70;;
32637;SDS011;19045;52.268;10.506;2022-07-23T14:04:55;2.65;;;1.05;;
32637;SDS011;19045;52.268;10.506;2022-07-23T14:07:22;2.90;;;0.90;;
32637;SDS011;19045;52.268;10.506;2022-07-23T14:09:49;2.17;;;0.70;;
32637;SDS011;19045;52.268;10.506;2022-07-23T14:12:21;6.32;;;0.70;;
32637;SDS011;19045;52.268;10.506;2022-07-23T14:14:48;1.48;;;0.52;;
32637;SDS011;19045;52.268;10.506;2022-07-23T14:17:17;5.00;;;0.57;;
32637;SDS011;19045;52.268;10.506;2022-07-23T14:19:44;3.13;;;0.63;;
32637;SDS011;19045;52.268;10.506;2022-07-23T14:22:14;2.58;;;1.20;;
32637;SDS011;19045;52.268;10.506;2022-07-23T14:24:40;2.60;;;0.75;;
32637;SDS011;19045;52.268;10.506;2022-07-23T14:27:07;1.27;;;0.70;;
32637;SDS011;19045;52.268;10.506;2022-07-23T14:29:36;3.65;;;0.60;;
32637;SDS011;19045;52.268;10.506;2022-07-23T14:32:03;2.13;;;0.57;;
32637;SDS011;19045;52.268;10.506;2022-07-23T14:34:30;0.73;;;0.55;;
32637;SDS011;19045;52.268;10.506;2022-07-23T14:36:57;1.92;;;0.65;;
32637;SDS011;19045;52.268;10.506;2022-07-23T14:39:24;3.10;;;0.70;;
32637;SDS011;19045;52.268;10.506;2022-07-23T14:41:51;1.90;;;0.52;;
32637;SDS011;19045;52.268;10.506;2022-07-23T14:44:17;5.03;;;0.70;;
32637;SDS011;19045;52.268;10.506;2022-07-23T14:46:46;4.40;;;0.75;;
32637;SDS011;19045;52.268;10.506;2022-07-23T14:49:12;3.97;;;0.80;;
32637;SDS011;19045;52.268;10.506;2022-07-23T14:51:39;2.65;;;0.70;;
32637;SDS011;19045;52.268;10.506;2022-07-23T14:54:07;4.90;;;1.08;;